Overton, Nevada Weather observations

Data are for observation ending at time listed.
 Day   Time    Ave.   Ave.  Ave.  Vector   Max.   Stn.    Total    Solar   Ave.  
  of    of     Air    Rel.  Wind   Wind    Wind   Baro.  Precip.   Rad.    Soil  
Year   Day     Temp.  Hum.  Speed  Dir.    Gust   Pres.                    Temp. 
2014   (PST)    F      %     mph   deg.    mph     mb.     in.     W/m2     F   
------------------------------------------------------------------------------
 233   21:20   81.0    36    0.9   143      2.6   967.7    0.00       0    85.6
 233   21:30   79.1    41    0.4   102      1.5   967.7    0.00       0    85.4
 233   21:40   78.7    42    0.7   173      1.5   967.6    0.00       0    85.2
 233   21:50   78.4    43    0.8   188      2.1   967.5    0.00       0    85.0
 233   22:00   77.6    46    0.6   286      1.9   967.5    0.00       0    84.8
 233   22:10   74.1    55    1.2   326      2.3   967.6    0.00       0    84.5
 233   22:20   73.2    55    0.1   314      1.2   967.6    0.00       0    84.3
 233   22:30   73.4    54    0.3   122      2.0   967.6    0.00       0    84.0
 233   22:40   74.9    51    1.0   117      2.6   967.6    0.00       0    83.8
 233   22:50   73.7    56    0.4    42      1.2   967.5    0.00       0    83.6
 233   23:00   72.7    60    1.3    55      2.0   967.5    0.00       0    83.3
 233   23:10   71.5    60    2.3   329      3.6   967.4    0.00       0    83.1
 233   23:20   70.8    63    1.8   354      3.3   967.4    0.00       0    82.8
 233   23:30   71.8    59    0.5   281      1.9   967.4    0.00       0    82.6
 233   23:40   72.9    54    1.8   286      3.2   967.3    0.00       0    82.4
 233   23:50   72.3    57    1.6   291      3.4   967.2    0.00       0    82.2
 234    0:00   71.5    58    0.2   338      1.0   967.1    0.00       0    82.0
 234    0:10   71.3    58    1.0   353      1.9   967.0    0.00       0    81.8
 234    0:20   71.1    59    1.2   303      2.0   966.9    0.00       0    81.6
 234    0:30   71.3    60    0.5   290      1.5   966.9    0.00       0    81.5
 234    0:40   70.3    62    0.0     0      0.0   966.9    0.00       0    81.3
 234    0:50   70.1    62    1.6   313      3.0   966.9    0.00       0    81.1
 234    1:00   69.4    64    1.9   299      3.1   966.9    0.00       0    80.9
 234    1:10   70.1    62    0.7   303      2.7   966.9    0.00       0    80.8
 234    1:20   69.6    64    1.4   357      2.3   966.9    0.00       0    80.6
 234    1:30   69.3    65    1.6   356      2.5   966.9    0.00       0    80.4
 234    1:40   69.8    64    1.4    47      2.7   966.8    0.00       0    80.2
 234    1:50   70.0    63    2.3   286      4.0   966.9    0.00       0    80.1
 234    2:00   69.7    63    2.2   293      4.3   966.9    0.00       0    79.9
 234    2:10   69.9    62    0.7   274      2.2   966.9    0.00       0    79.8
 234    2:20   70.0    63    0.7   292      3.0   967.0    0.00       0    79.6
 234    2:30   69.8    63    1.4   304      2.7   966.9    0.00       0    79.5
 234    2:40   69.2    64    0.6   321      1.8   966.9    0.00       0    79.4
 234    2:50   68.4    66    1.3   330      2.3   966.8    0.00       0    79.2
 234    3:00   67.3    68    2.3   313      3.8   966.8    0.00       0    79.1
 234    3:10   67.4    68    1.9   321      2.8   966.7    0.00       0    78.9
 234    3:20   67.6    68    1.7   332      2.3   966.8    0.00       0    78.7
 234    3:30   68.4    66    1.9   311      2.6   966.8    0.00       0    78.6
 234    3:40   68.1    66    0.7   321      1.5   966.8    0.00       0    78.5
 234    3:50   67.4    68    1.3   323      2.1   966.8    0.00       0    78.4
 234    4:00   67.4    68    1.7   329      2.3   966.8    0.00       0    78.3
 234    4:10   67.5    68    2.8   302      3.5   966.8    0.00       0    78.1
 234    4:20   68.3    66    1.7   284      3.3   966.9    0.00       0    78.0
 234    4:30   67.9    67    1.2   338      2.5   967.0    0.00       0    77.9
 234    4:40   67.6    69    0.0   330      0.6   967.0    0.00       0    77.8
 234    4:50   68.3    67    2.1   260      4.9   967.0    0.00       0    77.7
 234    5:00   68.6    67    1.1   280      2.9   967.1    0.00       2    77.6
 234    5:10   68.1    68    0.9   290      1.8   967.2    0.00       4    77.5
 234    5:20   67.9    68    1.0   286      2.6   967.3    0.00       9    77.4
 234    5:30   67.6    69    1.3     0      2.5   967.5    0.00      24    77.4
 234    5:40   68.5    68    1.5     5      2.3   967.6    0.00      52    77.5
 234    5:50   70.3    66    0.5    47      1.5   967.7    0.00      81    77.9
 234    6:00   72.2    63    0.2    38      0.9   967.9    0.00      90    78.5
 234    6:10   72.6    62    0.5   314      1.2   968.0    0.00     123    79.1
 234    6:20   73.7    61    0.6   336      1.5   968.2    0.00     161    79.6
 234    6:30   74.9    59    0.5   354      1.3   968.4    0.00     183    80.5
 234    6:40   76.7    57    0.5   317      1.8   968.6    0.00     218    81.4
 234    6:50   77.2    56    0.8   340      2.4   968.8    0.00     247    82.3
 234    7:00   76.9    58    1.6   343      2.9   968.9    0.00     277    83.2
 234    7:10   78.3    56    0.6    16      2.2   969.0    0.00     306    84.1
 234    7:20   80.5    52    0.7   107      2.8   969.1    0.00     335    85.1
 234    7:30   80.3    54    2.0   144      4.3   969.3    0.00     363    86.1
 234    7:40   79.4    55    1.7   129      3.4   969.3    0.00     390    87.0
 234    7:50   80.9    50    2.8   130      5.9   969.4    0.00     419    88.0
 234    8:00   81.4    46    3.8   142      8.6   969.5    0.00     446    88.9
 234    8:10   82.0    44    4.1   136     10.0   969.6    0.00     194    89.7
 234    8:20   82.7    42    4.5   124      8.2   969.6    0.00     258    90.5
 234    8:30   83.4    40    3.8   112      9.9   969.6    0.00      61    91.4
 234    8:40   83.9    39    4.5   130      9.3   969.6    0.00     172    92.2
 234    8:50   83.8    39    5.2   134     11.0   969.6    0.00     572    93.0
 234    9:00   84.0    39    4.8   122     11.1   969.6    0.00     595    93.8
 234    9:10   84.9    37    4.3   121      9.4   969.6    0.00     421    94.5
 234    9:20   85.4    35    4.6   130     11.5   969.6    0.00     637    95.3
 234    9:30   85.7    34    5.4   129     12.7   969.6    0.00     660    96.1
 234    9:40   85.9    34    5.0   135     10.6   969.5    0.00     413    96.7
 234    9:50   86.3    33    6.3   142     11.8   969.5    0.00     604    97.3
 234   10:00   86.6    32    6.6   136     13.8   969.4    0.00     384    97.9
 234   10:10   86.4    32    6.2   150     13.1   969.2    0.00     727    98.3
 234   10:20   87.9    31    5.1   131     12.8   969.2    0.00     742    98.9
 234   10:30   87.7    31    5.7   134     14.5   969.1    0.00     754    99.4
 234   10:40   87.2    31    5.0   163      9.0   969.0    0.00     766    99.7
 234   10:50   89.2    30    4.4   129      9.3   968.8    0.00     774    100.0
 234   11:00   88.6    30    6.3   132     14.3   968.6    0.00     783    100.3
 234   11:10   88.5    30    4.6   148     10.9   968.5    0.00     789    100.0
 234   11:20   90.1    28    4.1   126      9.7   968.3    0.00     796    99.5
 234   11:30   90.6    28    5.2   149     10.7   968.2    0.00     800    98.9
 234   11:40   90.0    28    4.4   152     13.5   968.1    0.00     802    98.3
 234   11:50   91.6    26    4.6   135     11.3   968.0    0.00     802    97.6
 234   12:00   91.1    27    5.0   155     12.8   968.0    0.00     802    97.0
 234   12:10   91.1    27    5.1   154     12.1   967.8    0.00     801    96.5
 234   12:20   92.1    26    5.3   150     10.7   967.7    0.00     800    96.0
 234   12:30   92.5    26    4.3   136      9.3   967.6    0.00     792    95.5
 234   12:40   92.8    25    4.8   115     10.2   967.5    0.00     786    95.0
 234   12:50   93.1    25    6.4   139     13.8   967.3    0.00     777    94.6
 234   13:00   93.1    25    5.1   126     12.7   967.2    0.00     768    94.3
 234   13:10   93.5    24    6.5   140     15.0   967.0    0.00     758    94.0
 234   13:20   93.0    24    6.2   148     15.5   966.8    0.00     745    93.8
 234   13:30   94.1    23    4.5   112     11.7   966.7    0.00     731    93.5
 234   13:40   94.0    24    6.5   158     17.2   966.5    0.00     714    93.3
 234   13:50   94.2    23    5.4   132     13.5   966.4    0.00     699    93.2
 234   14:00   94.3    23    7.0   148     13.9   966.3    0.00     680    93.1
 234   14:10   94.4    23    7.8   160     15.9   966.0    0.00     660    93.1
 234   14:20   94.4    23    7.5   151     17.4   965.9    0.00     640    93.1
 234   14:30   95.0    22    5.6   131     11.9   965.8    0.00     616    93.1
 234   14:40   95.6    21    5.3   152     11.3   965.7    0.00     579    93.3
 234   14:50   95.3    22    8.4   144     15.3   965.6    0.00     556    93.5
 234   15:00   95.3    21    6.3   132     13.4   965.5    0.00     546    93.6
 234   15:10   95.5    21    7.4   160     14.7   965.4    0.00     515    93.7
 234   15:20   95.7    21    4.6   147     11.2   965.3    0.00     494    93.8
 234   15:30   95.7    20    8.0   154     14.8   965.2    0.00     463    93.8
 234   15:40   95.1    21    8.7   163     15.6   965.0    0.00     430    93.8
 234   15:50   95.5    20    7.7   146     13.4   964.9    0.00     406    93.8
 234   16:00   95.5    20    8.3   166     16.3   964.8    0.00     351    93.8
 234   16:10   95.4    20    8.2   154     14.5   964.6    0.00     351    93.8
 234   16:20   95.4    20    7.3   146     16.9   964.4    0.00     320    93.8
 234   16:30   95.4    20    6.9   144     15.6   964.3    0.00     287    93.7
 234   16:40   95.0    20    9.3   161     18.3   964.1    0.00     257    93.7
 234   16:50   94.6    20    7.7   153     15.3   964.0    0.00     227    93.5
 234   17:00   94.4    20    8.2   148     15.8   963.8    0.00     198    93.4
 234   17:10   94.3    20    8.1   149     17.8   963.8    0.00     167    93.3
 234   17:20   94.0    20    8.7   149     18.6   963.7    0.00     138    93.2
 234   17:30   93.8    20    7.9   152     18.3   963.7    0.00     110    93.1
 234   17:40   93.4    21    8.4   153     18.0   963.5    0.00      55    92.9
 234   17:50   92.9    22   10.1   159     16.4   963.5    0.00      22    92.8
 234   18:00   92.4    22   11.2   164     18.7   963.3    0.00      17    92.6
 234   18:10   92.1    22   10.1   162     18.3   963.1    0.00      12    92.4
 234   18:20   91.8    23    8.5   166     16.0   963.2    0.00       6    92.1
 234   18:30   91.5    23   10.0   168     20.6   963.2    0.00       3    91.9
 234   18:40   91.1    23    8.8   168     16.4   963.1    0.00       0    91.6
 234   18:50   91.0    23    9.3   168     17.2   963.1    0.00       0    91.4
 234   19:00   90.8    23   11.9   163     21.3   963.1    0.00       0    91.1
 234   19:10   90.6    24   12.2   164     19.4   963.2    0.00       0    90.9
 234   19:20   90.4    24   12.6   159     21.8   963.2    0.00       0    90.7
 234   19:30   90.2    24   12.0   162     24.2   963.2    0.00       0    90.5
 234   19:40   89.7    25   10.4   159     16.1   963.3    0.00       0    90.4
 234   19:50   89.5    25    9.5   157     18.1   963.4    0.00       0    90.1
 234   20:00   89.3    25   10.5   155     20.3   963.4    0.00       0    89.9
 234   20:10   89.0    25    9.7   158     16.1   963.4    0.00       0    89.7
 234   20:20   88.7    26    9.5   157     15.8   963.2    0.00       0    89.5
 234   20:30   88.5    26    9.2   157     18.0   963.2    0.00       0    89.3
 234   20:40   88.2    26    9.6   154     17.1   963.2    0.00       0    89.1
 234   20:50   88.0    27    8.7   153     20.0   963.2    0.00       0    88.9
 234   21:00   87.9    27   10.6   152     18.9   963.2    0.00       0    88.8
 234   21:10   87.7    28   10.7   156     20.0   963.2    0.00       0    88.6

Return to Overton, Nevada graphs page.


Western Regional Climate Center,wrcc@dri.edu